Time;durP1;ratioP1;P1;durP2;ratioP2;P2;SDS_P1;SDS_P2;PMS_P1;PMS_P2;Temp;Humidity;BMP_temperature;BMP_pressure;BME280_temperature;BME280_humidity;BME280_pressure;Samples;Min_cycle;Max_cycle;Signal;HPM_P1;HPM_P2
2022/09/01 00:00:20;;;;;;;7.70;3.52;;;;;;;13.63;74.94;100813.92;1947371;91;33925;-70
2022/09/01 00:03:24;;;;;;;8.55;2.85;;;;;;;13.65;74.94;100817.86;1961315;90;28345;-70
2022/09/01 00:06:25;;;;;;;4.80;2.83;;;;;;;13.64;74.98;100818.34;1947410;91;27680;-69
2022/09/01 00:09:27;;;;;;;4.75;3.00;;;;;;;13.66;75.10;100819.59;1960952;89;29069;-71
2022/09/01 00:12:29;;;;;;;6.03;2.80;;;;;;;13.67;75.16;100818.65;1955678;89;31473;-69
2022/09/01 00:15:31;;;;;;;9.63;2.90;;;;;;;13.70;75.27;100820.30;1947544;91;32988;-72
2022/09/01 00:18:36;;;;;;;7.80;2.87;;;;;;;13.70;75.28;100817.59;1947268;91;30561;-69
2022/09/01 00:21:40;;;;;;;;;;;;;;;13.73;75.32;100822.83;1949483;90;27755;-70
2022/09/01 00:24:41;;;;;;;4.40;2.35;;;;;;;13.74;75.42;100826.77;1947356;91;28445;-69
2022/09/01 00:27:43;;;;;;;3.90;2.40;;;;;;;13.73;75.26;100830.45;1947347;90;31419;-69
2022/09/01 00:30:44;;;;;;;4.58;2.25;;;;;;;13.74;75.35;100826.77;1947538;91;34033;-69
2022/09/01 00:33:47;;;;;;;4.40;2.47;;;;;;;13.76;75.33;100823.52;1947367;90;29662;-70
2022/09/01 00:36:48;;;;;;;5.00;2.60;;;;;;;13.78;75.31;100824.80;1947341;91;28337;-69
2022/09/01 00:39:50;;;;;;;3.67;2.17;;;;;;;13.80;75.33;100824.24;1947265;91;29200;-68
2022/09/01 00:42:52;;;;;;;6.10;2.75;;;;;;;13.83;75.23;100820.90;1975451;89;32236;-68
2022/09/01 00:45:56;;;;;;;3.95;2.77;;;;;;;13.86;75.14;100817.64;1977278;90;33035;-68
2022/09/01 00:49:06;;;;;;;7.53;3.15;;;;;;;13.90;75.27;100819.22;1977179;90;28780;-68
2022/09/01 00:52:22;;;;;;;8.40;2.80;;;;;;;13.94;75.21;100812.69;1977219;90;27797;-68
2022/09/01 00:55:30;;;;;;;6.20;2.60;;;;;;;13.96;75.24;100812.12;1976721;90;28665;-68
2022/09/01 00:58:33;;;;;;;4.85;2.67;;;;;;;13.98;75.28;100807.53;1977020;90;31923;-68
2022/09/01 01:01:35;;;;;;;5.58;2.33;;;;;;;14.02;75.22;100810.45;1976833;90;34214;-69
2022/09/01 01:04:37;;;;;;;4.92;2.67;;;;;;;14.05;75.33;100806.24;1977206;90;30185;-68
2022/09/01 01:07:43;;;;;;;4.55;2.30;;;;;;;14.07;75.40;100804.30;1977264;90;27645;-69
2022/09/01 01:10:42;;;;;;;5.72;2.90;;;;;;;14.08;75.40;100804.70;1972786;89;30005;-69
2022/09/01 01:14:04;;;;;;;4.83;2.50;;;;;;;14.12;75.32;100801.38;1944912;91;31442;-69
2022/09/01 01:17:03;;;;;;;3.67;2.67;;;;;;;14.15;75.42;100800.32;1956486;90;32473;-69
2022/09/01 01:23:40;;;;;;;6.62;2.52;;;;;;;14.19;75.19;100802.75;1944866;91;27785;-68
2022/09/01 01:26:42;;;;;;;9.33;2.67;;;;;;;14.19;75.13;100805.94;1945215;90;28698;-70
2022/09/01 01:29:44;;;;;;;4.08;2.55;;;;;;;14.21;75.35;100798.64;1944547;91;33191;-70
2022/09/01 01:32:48;;;;;;;3.90;2.40;;;;;;;14.22;75.49;100802.58;1944834;91;33967;-68
2022/09/01 01:35:51;;;;;;;8.28;2.65;;;;;;;14.23;75.48;100807.02;1944849;90;29350;-69
2022/09/01 01:38:54;;;;;;;6.20;2.80;;;;;;;14.23;75.39;100805.67;1945114;91;27665;-69
2022/09/01 01:41:57;;;;;;;8.93;2.90;;;;;;;14.23;75.28;100808.36;1965096;90;28702;-69
2022/09/01 01:44:59;;;;;;;4.95;2.70;;;;;;;14.24;75.29;100810.10;1980033;89;31093;-69
2022/09/01 01:48:04;;;;;;;6.28;3.20;;;;;;;14.25;75.39;100804.22;1977220;90;34311;-68
2022/09/01 01:51:05;;;;;;;4.33;2.10;;;;;;;14.26;75.36;100800.11;1950705;89;29195;-69
2022/09/01 01:54:07;;;;;;;5.17;2.60;;;;;;;14.28;75.55;100797.31;1944547;91;27760;-68
2022/09/01 01:57:08;;;;;;;4.78;2.70;;;;;;;14.28;75.51;100798.20;1944807;91;29836;-68
2022/09/01 02:00:18;;;;;;;6.05;2.98;;;;;;;14.30;75.46;100795.90;1944769;91;31460;-67
2022/09/01 02:03:17;;;;;;;6.40;2.47;;;;;;;14.30;75.35;100795.41;1945113;90;33322;-68
2022/09/01 02:06:23;;;;;;;;;;;;;;;14.31;75.35;100792.25;1947288;91;30388;-68
2022/09/01 02:09:23;;;;;;;8.43;3.33;;;;;;;14.32;75.52;100792.61;1946481;90;27730;-68
2022/09/01 02:12:24;;;;;;;4.10;3.00;;;;;;;14.30;75.28;100794.05;1944908;91;28636;-69
2022/09/01 02:15:26;;;;;;;3.33;2.20;;;;;;;14.32;75.46;100800.23;1944749;91;31103;-70
2022/09/01 02:18:35;;;;;;;7.90;2.47;;;;;;;14.34;75.34;100794.73;1944855;91;32964;-70
2022/09/01 02:21:36;;;;;;;5.70;3.30;;;;;;;14.35;75.10;100796.02;1957612;90;30241;-68
2022/09/01 02:24:43;;;;;;;11.55;2.95;;;;;;;14.35;75.22;100790.63;1958112;90;27842;-68
2022/09/01 02:27:42;;;;;;;4.58;2.85;;;;;;;14.38;75.32;100798.55;1957756;90;28676;-69
2022/09/01 02:30:52;;;;;;;5.10;2.95;;;;;;;14.37;74.87;100792.76;1958056;90;32210;-69
2022/09/01 02:33:54;;;;;;;7.50;2.83;;;;;;;14.37;74.68;100792.76;1957481;90;33786;-69
2022/09/01 02:36:59;;;;;;;3.80;2.50;;;;;;;14.38;74.55;100789.11;1958049;90;29778;-69
2022/09/01 02:40:01;;;;;;;4.00;2.58;;;;;;;14.39;74.38;100791.31;1946094;90;27666;-69
2022/09/01 02:43:04;;;;;;;6.87;2.40;;;;;;;14.41;74.50;100784.01;1949966;90;28729;-68
2022/09/01 02:46:06;;;;;;;5.45;2.33;;;;;;;14.42;74.41;100796.03;1958548;90;31930;-68
2022/09/01 02:49:18;;;;;;;9.00;2.80;;;;;;;14.43;74.23;100795.58;1960525;90;35096;-69
2022/09/01 02:52:19;;;;;;;4.20;2.25;;;;;;;14.43;74.11;100790.18;1958212;89;29988;-69
2022/09/01 02:55:21;;;;;;;;;;;;;;;14.42;74.07;100791.99;1961469;89;27648;-69
2022/09/01 02:58:26;;;;;;;5.78;2.22;;;;;;;14.43;74.26;100790.18;1956166;90;43972;-68
2022/09/01 03:01:31;;;;;;;4.17;2.55;;;;;;;14.42;74.21;100796.53;1955391;90;31100;-71
2022/09/01 03:04:33;;;;;;;;;;;;;;;14.42;74.06;100789.30;1960688;90;33021;-71
2022/09/01 03:07:35;;;;;;;6.10;2.58;;;;;;;14.42;74.13;100783.91;1960489;90;29701;-70
2022/09/01 03:10:40;;;;;;;6.10;1.77;;;;;;;14.41;74.21;100788.05;1960049;90;27667;-71
2022/09/01 03:13:41;;;;;;;;;;;;;;;14.40;74.27;100785.81;1965789;90;28665;-69
2022/09/01 03:16:44;;;;;;;4.47;2.22;;;;;;;14.40;74.43;100791.20;1963365;90;31129;-71
2022/09/01 03:19:45;;;;;;;5.10;2.80;;;;;;;14.38;74.40;100794.50;1963441;90;33210;-71
2022/09/01 03:22:49;;;;;;;3.65;2.45;;;;;;;14.38;74.48;100790.92;1963610;90;29718;-69
2022/09/01 03:25:51;;;;;;;7.53;2.60;;;;;;;14.35;74.16;100796.48;1963201;90;27736;-69
2022/09/01 03:28:53;;;;;;;5.62;3.02;;;;;;;14.36;74.16;100791.48;1963376;90;28673;-70
2022/09/01 03:31:54;;;;;;;11.22;2.60;;;;;;;14.35;74.14;100794.67;1963232;90;32245;-68
2022/09/01 03:34:56;;;;;;;4.03;2.50;;;;;;;14.37;74.07;100797.27;1963306;90;33364;-70
2022/09/01 03:38:00;;;;;;;6.83;3.00;;;;;;;14.37;74.10;100797.27;1963210;90;30526;-69
2022/09/01 03:41:05;;;;;;;3.05;2.40;;;;;;;14.38;74.10;100792.27;1960765;90;27648;-70
2022/09/01 03:44:10;;;;;;;4.28;2.00;;;;;;;14.38;74.21;100797.20;1958957;90;28697;-70
2022/09/01 03:47:09;;;;;;;5.15;2.22;;;;;;;14.40;74.25;100791.70;1984256;88;32561;-70
2022/09/01 03:50:20;;;;;;;4.35;2.60;;;;;;;14.41;74.31;100794.79;1989826;89;33141;-70
2022/09/01 03:53:26;;;;;;;4.75;2.50;;;;;;;14.42;74.27;100799.22;1992775;88;28548;-70
2022/09/01 03:56:28;;;;;;;4.30;2.37;;;;;;;14.43;74.24;100794.23;1989973;89;27834;-70
2022/09/01 03:59:30;;;;;;;4.08;2.58;;;;;;;14.42;74.32;100791.99;1972049;89;29071;-70
2022/09/01 04:02:32;;;;;;;7.50;3.12;;;;;;;14.43;74.36;100807.21;1969767;90;31889;-70
2022/09/01 04:05:36;;;;;;;6.65;2.98;;;;;;;14.43;74.31;100798.27;1969683;90;34270;-70
2022/09/01 04:08:38;;;;;;;7.67;3.70;;;;;;;14.43;74.25;100807.21;1956051;91;29322;-70
2022/09/01 04:11:40;;;;;;;8.90;3.42;;;;;;;14.43;74.20;100807.70;1970033;90;27689;-69
2022/09/01 04:14:42;;;;;;;5.25;3.25;;;;;;;14.42;74.25;100803.27;1969897;90;29891;-69
2022/09/01 04:21:06;;;;;;;5.15;3.47;;;;;;;14.41;74.37;100806.92;1969883;90;34418;-70
2022/09/01 04:24:10;;;;;;;4.85;3.37;;;;;;;14.40;74.26;100802.48;1969593;90;29410;-70
2022/09/01 04:27:14;;;;;;;6.90;3.40;;;;;;;14.41;74.43;100801.53;1970104;90;27758;-70
2022/09/01 04:30:16;;;;;;;6.35;3.60;;;;;;;14.39;74.24;100800.28;1995656;88;28829;-69
2022/09/01 04:33:17;;;;;;;6.08;4.00;;;;;;;14.40;74.37;100795.75;1988267;89;32256;-70
2022/09/01 04:36:26;;;;;;;7.67;3.10;;;;;;;14.43;74.51;100800.47;2003021;88;34164;-69
2022/09/01 04:39:28;;;;;;;7.00;3.52;;;;;;;14.44;74.34;100795.97;2001895;88;30182;-70
2022/09/01 04:42:31;;;;;;;6.35;3.30;;;;;;;14.46;74.35;100807.53;2002563;88;27672;-70
2022/09/01 04:45:35;;;;;;;11.28;3.98;;;;;;;14.48;74.44;100794.80;1991416;89;29378;-69
2022/09/01 04:48:38;;;;;;;8.30;4.00;;;;;;;14.52;74.42;100795.52;1998890;89;33264;-70
2022/09/01 04:51:46;;;;;;;7.67;3.67;;;;;;;14.55;74.54;100797.55;1998913;89;34263;-70
2022/09/01 04:54:47;;;;;;;5.45;3.20;;;;;;;14.61;74.48;100800.85;1999229;89;29361;-70
2022/09/01 04:57:49;;;;;;;12.58;3.58;;;;;;;14.66;74.66;100810.41;1999274;89;27814;-69
2022/09/01 05:00:54;;;;;;;6.20;3.98;;;;;;;14.70;74.62;100807.96;1967412;89;29233;-70
2022/09/01 05:04:00;;;;;;;8.20;4.05;;;;;;;14.76;74.61;100801.80;1898476;93;31476;-70
2022/09/01 05:07:02;;;;;;;7.35;3.47;;;;;;;14.78;74.32;100801.22;1884378;94;33181;-71
2022/09/01 05:10:05;;;;;;;7.40;3.42;;;;;;;14.85;74.29;100806.66;1868665;94;36764;-70
2022/09/01 05:13:11;;;;;;;4.92;3.40;;;;;;;14.91;74.30;100810.32;1885105;94;28280;-70
2022/09/01 05:16:18;;;;;;;5.75;3.22;;;;;;;15.00;74.25;100812.95;1898403;93;28742;-70
2022/09/01 05:19:20;;;;;;;6.30;3.60;;;;;;;15.08;74.29;100809.32;1885628;94;31141;-70
2022/09/01 05:22:21;;;;;;;9.28;4.05;;;;;;;15.17;74.19;100810.59;1875349;93;33494;-71
2022/09/01 05:25:24;;;;;;;4.17;3.25;;;;;;;15.27;74.23;100806.36;1858935;95;29500;-70
2022/09/01 05:28:28;;;;;;;7.50;3.60;;;;;;;15.38;74.11;100804.84;1886237;94;28320;-70
2022/09/01 05:31:36;;;;;;;4.80;3.45;;;;;;;15.49;73.93;100805.05;1871270;95;28777;-69
2022/09/01 05:34:39;;;;;;;6.00;3.45;;;;;;;15.59;73.59;100813.44;1871250;95;33234;-70
2022/09/01 05:37:42;;;;;;;4.10;3.10;;;;;;;15.68;73.50;100803.39;1871725;95;33735;-71
2022/09/01 05:40:44;;;;;;;6.17;2.85;;;;;;;15.83;73.39;100807.44;1871267;95;29341;-70
2022/09/01 05:43:49;;;;;;;6.45;3.08;;;;;;;15.98;73.19;100806.98;1848310;95;27870;-69
2022/09/01 05:46:51;;;;;;;6.55;3.22;;;;;;;16.07;72.68;100807.26;1869347;95;28713;-69
2022/09/01 05:49:55;;;;;;;4.37;2.75;;;;;;;16.19;72.65;100811.00;1869111;95;31951;-68
2022/09/01 05:52:56;;;;;;;7.65;3.40;;;;;;;16.16;71.68;100790.92;1893508;92;33822;-69
2022/09/01 05:55:57;;;;;;;7.60;2.85;;;;;;;16.34;71.66;100817.72;1947672;91;30506;-70
2022/09/01 05:59:04;;;;;;;5.28;3.08;;;;;;;16.32;71.35;100804.79;1926815;92;27843;-71
2022/09/01 06:02:07;;;;;;;5.20;2.65;;;;;;;16.32;71.35;100804.79;1926792;92;29528;-70
2022/09/01 06:05:12;;;;;;;7.55;2.87;;;;;;;16.47;71.00;100828.11;1947486;91;30858;-73
2022/09/01 06:08:14;;;;;;;8.08;3.22;;;;;;;16.51;70.96;100828.30;1924363;91;33833;-71
2022/09/01 06:11:23;;;;;;;3.72;2.67;;;;;;;16.60;70.93;100832.70;1927799;92;29318;-70
2022/09/01 06:14:23;;;;;;;8.63;2.90;;;;;;;16.67;70.67;100825.92;1927904;91;27829;-69
2022/09/01 06:17:28;;;;;;;6.75;2.60;;;;;;;16.77;69.50;100825.67;1927476;92;27801;-70
2022/09/01 06:20:30;;;;;;;5.10;2.37;;;;;;;16.77;69.50;100825.67;1927929;92;31146;-70
2022/09/01 06:23:32;;;;;;;4.12;3.00;;;;;;;16.85;69.86;100821.98;1909446;91;33904;-70
2022/09/01 06:26:37;;;;;;;4.90;3.42;;;;;;;17.08;70.19;100818.70;1926939;92;29390;-69
2022/09/01 06:29:39;;;;;;;6.03;2.70;;;;;;;17.35;70.02;100823.16;1928129;92;27811;-71
2022/09/01 06:32:45;;;;;;;5.12;2.77;;;;;;;17.57;68.74;100823.86;1928004;92;28672;-70
2022/09/01 06:35:47;;;;;;;7.42;2.80;;;;;;;17.67;68.82;100822.25;1927889;92;31067;-71
2022/09/01 06:38:54;;;;;;;5.90;2.60;;;;;;;17.85;68.41;100829.54;1927751;90;32902;-71
2022/09/01 06:41:56;;;;;;;4.20;2.50;;;;;;;18.02;68.51;100830.20;1927638;89;29411;-69
2022/09/01 06:44:58;;;;;;;4.75;2.62;;;;;;;18.33;68.07;100830.66;1925413;90;27918;-71
2022/09/01 06:48:03;;;;;;;4.47;2.40;;;;;;;18.47;67.02;100835.92;1961746;89;29540;-72
2022/09/01 06:51:08;;;;;;;;;;;;;;;18.67;66.75;100837.16;1936470;90;31871;-71
2022/09/01 06:54:13;;;;;;;5.05;2.58;;;;;;;18.85;66.37;100835.39;1935112;90;33027;-71
2022/09/01 06:57:20;;;;;;;3.85;2.60;;;;;;;19.00;65.89;100837.95;1930016;92;27659;-71
2022/09/01 07:00:22;;;;;;;2.92;2.35;;;;;;;19.12;65.81;100839.20;1881442;93;27797;-71
2022/09/01 07:03:27;;;;;;;6.35;2.80;;;;;;;19.27;65.05;100845.81;1858720;94;28730;-71
2022/09/01 07:06:34;;;;;;;7.53;2.35;;;;;;;19.47;64.64;100834.73;1899735;93;31829;-71
2022/09/01 07:09:41;;;;;;;6.83;3.05;;;;;;;19.57;64.12;100835.73;1900150;91;28144;-72
2022/09/01 07:12:45;;;;;;;6.22;2.27;;;;;;;19.96;63.94;100842.20;1899065;92;29248;-71
2022/09/01 07:15:52;;;;;;;8.03;2.90;;;;;;;20.11;63.73;100840.09;1899372;93;27819;-69
2022/09/01 07:18:58;;;;;;;6.15;2.22;;;;;;;20.34;62.71;100845.02;1857517;95;28684;-71
2022/09/01 07:22:03;;;;;;;7.00;2.35;;;;;;;20.40;62.62;100836.83;1898837;93;28516;-71
2022/09/01 07:25:06;;;;;;;5.87;2.08;;;;;;;20.62;62.07;100843.22;1839136;95;34194;-69
2022/09/01 07:28:13;;;;;;;3.45;1.45;;;;;;;20.90;61.76;100838.19;1875973;93;27836;-69
2022/09/01 07:31:28;;;;;;;4.45;1.47;;;;;;;21.18;59.76;100844.88;1857701;94;27930;-72
2022/09/01 07:34:31;;;;;;;3.55;1.60;;;;;;;21.45;59.56;100839.38;1821581;96;28726;-68
2022/09/01 07:37:38;;;;;;;3.60;1.55;;;;;;;21.74;59.63;100848.76;1819974;96;27904;-71
2022/09/01 07:40:41;;;;;;;6.75;1.75;;;;;;;22.05;59.44;100843.30;1838303;95;33161;-71
2022/09/01 07:43:46;;;;;;;3.50;1.57;;;;;;;22.35;59.00;100844.23;1843254;93;29362;-71
2022/09/01 07:46:51;;;;;;;4.53;2.05;;;;;;;22.45;57.25;100848.75;1867881;93;27798;-70
2022/09/01 07:49:52;;;;;;;2.10;1.37;;;;;;;22.57;55.79;100848.14;1868073;93;29395;-71
2022/09/01 07:52:53;;;;;;;5.20;1.60;;;;;;;22.67;55.13;100850.89;1867779;95;31966;-71
2022/09/01 07:55:59;;;;;;;2.95;1.45;;;;;;;22.62;54.64;100860.00;1878865;91;32956;-70
2022/09/01 07:59:01;;;;;;;7.50;1.75;;;;;;;22.83;55.87;100850.83;1970228;88;29391;-70
2022/09/01 08:02:04;;;;;;;4.05;1.42;;;;;;;22.93;53.50;100848.10;1931072;89;27656;-71
2022/09/01 08:05:12;;;;;;;5.92;1.47;;;;;;;23.00;51.83;100851.48;1941589;90;27714;-68
2022/09/01 08:08:14;;;;;;;2.85;1.55;;;;;;;23.04;54.02;100850.68;1970311;90;31117;-69
2022/09/01 08:11:21;;;;;;;5.10;1.60;;;;;;;23.34;53.38;100847.44;1928062;90;33030;-69
2022/09/01 08:14:26;;;;;;;3.15;1.60;;;;;;;23.49;52.84;100848.73;1922415;92;29348;-71
2022/09/01 08:17:27;;;;;;;2.90;0.95;;;;;;;23.63;53.03;100848.75;1908190;90;27819;-71
2022/09/01 08:20:29;;;;;;;3.25;1.35;;;;;;;23.71;49.98;100858.95;1968347;90;29721;-69
2022/09/01 08:23:30;;;;;;;1.62;1.00;;;;;;;23.57;50.59;100858.94;1926792;90;31055;-72
2022/09/01 08:26:32;;;;;;;2.77;1.10;;;;;;;23.64;50.41;100864.16;1933170;90;32960;-69
2022/09/01 08:29:34;;;;;;;0.88;0.82;;;;;;;23.52;48.37;100861.25;1967980;90;29393;-69
2022/09/01 08:32:37;;;;;;;7.72;1.30;;;;;;;23.08;47.90;100868.52;1931262;90;27742;-69
2022/09/01 08:35:41;;;;;;;1.98;0.95;;;;;;;22.97;49.24;100857.75;1939210;90;28671;-68
2022/09/01 08:38:43;;;;;;;4.55;1.00;;;;;;;22.76;48.77;100862.31;1888212;94;31066;-68
2022/09/01 08:42:14;;;;;;;1.95;1.07;;;;;;;22.70;49.60;100858.80;1931527;92;33021;-68
2022/09/01 08:45:46;;;;;;;3.00;1.07;;;;;;;22.71;48.34;100864.63;1964206;90;29355;-68
2022/09/01 08:49:05;;;;;;;3.08;1.22;;;;;;;22.51;48.88;100862.34;1920875;92;28261;-68
2022/09/01 08:52:30;;;;;;;4.37;1.65;;;;;;;22.29;49.46;100860.68;1920983;92;28203;-67
2022/09/01 08:55:37;;;;;;;1.55;1.45;;;;;;;22.16;48.65;100858.22;1921162;92;31048;-67
2022/09/01 08:58:39;;;;;;;2.33;1.40;;;;;;;22.09;48.98;100860.61;1920962;92;33929;-67
2022/09/01 09:02:12;;;;;;;1.85;1.25;;;;;;;21.89;48.08;100856.94;1920843;92;30261;-68
2022/09/01 09:05:34;;;;;;;1.00;0.80;;;;;;;21.70;48.61;100854.48;1921128;92;27803;-67
2022/09/01 09:08:58;;;;;;;4.50;1.25;;;;;;;21.58;48.01;100856.05;1921147;92;29200;-69
2022/09/01 09:12:40;;;;;;;6.03;1.10;;;;;;;21.17;48.31;100856.77;1908848;92;31166;-68
2022/09/01 09:15:53;;;;;;;2.52;1.27;;;;;;;21.18;48.49;100854.41;1952435;91;32437;-68
2022/09/01 09:19:28;;;;;;;3.47;1.35;;;;;;;21.39;49.59;100857.65;1925746;92;29367;-69
2022/09/01 09:22:31;;;;;;;2.80;1.05;;;;;;;21.51;48.69;100853.84;1952570;91;27901;-67
2022/09/01 09:25:32;;;;;;;2.40;1.00;;;;;;;21.64;48.09;100848.70;1942470;90;28732;-68
2022/09/01 09:28:33;;;;;;;2.08;1.10;;;;;;;21.59;48.07;100857.78;1965468;90;31045;-67
2022/09/01 09:31:42;;;;;;;1.95;1.30;;;;;;;21.47;48.48;100852.89;1942412;90;33728;-67
2022/09/01 09:34:42;;;;;;;4.08;0.93;;;;;;;21.32;48.42;100851.87;1976615;90;29348;-68
2022/09/01 09:37:45;;;;;;;1.47;0.80;;;;;;;21.35;48.96;100848.00;1976664;89;28262;-68
2022/09/01 09:41:06;;;;;;;1.47;1.02;;;;;;;21.42;47.55;100856.50;1971267;89;28651;-71
2022/09/01 09:44:24;;;;;;;1.95;0.88;;;;;;;21.40;48.21;100855.29;1943528;91;31056;-71
2022/09/01 09:47:45;;;;;;;2.85;1.07;;;;;;;21.52;48.95;100846.52;1942543;91;34407;-71
2022/09/01 09:50:47;;;;;;;1.70;0.90;;;;;;;21.71;47.60;100844.45;1921468;92;29626;-71
2022/09/01 09:53:49;;;;;;;3.98;1.02;;;;;;;21.66;47.85;100848.08;1924535;90;27715;-70
2022/09/01 09:57:13;;;;;;;1.12;0.80;;;;;;;21.52;47.92;100851.48;1960596;89;29115;-71
2022/09/01 10:00:33;;;;;;;1.60;0.93;;;;;;;21.27;47.46;100848.67;1960468;90;31141;-71
2022/09/01 10:03:47;;;;;;;2.37;1.05;;;;;;;21.08;47.56;100844.80;1960737;90;34135;-71
2022/09/01 10:06:49;;;;;;;1.53;0.87;;;;;;;21.05;48.18;100842.33;1931599;91;29363;-72
2022/09/01 10:09:54;;;;;;;1.22;0.90;;;;;;;21.21;47.72;100841.89;1940839;90;27700;-70
2022/09/01 10:12:57;;;;;;;1.65;0.82;;;;;;;21.37;47.70;100837.31;1962095;90;29459;-71
2022/09/01 10:16:06;;;;;;;1.17;0.62;;;;;;;21.57;47.54;100836.59;1962394;90;30792;-71
2022/09/01 10:19:12;;;;;;;2.35;0.98;;;;;;;21.53;46.74;100834.61;1962379;90;32439;-72
2022/09/01 10:22:14;;;;;;;1.75;0.70;;;;;;;21.34;46.04;100838.09;1962433;90;30138;-72
2022/09/01 10:25:22;;;;;;;1.47;0.98;;;;;;;21.04;46.46;100839.23;1962457;90;27793;-72
2022/09/01 10:28:24;;;;;;;4.45;1.45;;;;;;;20.89;46.34;100841.91;1962337;90;28662;-71
2022/09/01 10:31:26;;;;;;;1.67;1.00;;;;;;;20.69;47.27;100840.33;1962296;90;31423;-70
2022/09/01 10:34:32;;;;;;;1.52;0.80;;;;;;;20.65;47.63;100841.09;1962266;90;33338;-71
2022/09/01 10:37:37;;;;;;;1.15;1.05;;;;;;;20.69;47.34;100836.25;1962477;90;29403;-71
2022/09/01 10:40:44;;;;;;;;;;;;;;;20.74;47.11;100834.02;1965114;89;27723;-71
2022/09/01 10:43:48;;;;;;;0.55;0.55;;;;;;;20.83;47.14;100835.12;1945155;89;28749;-71
2022/09/01 10:46:50;;;;;;;3.50;0.72;;;;;;;20.71;45.49;100836.98;1946487;90;31056;-71
2022/09/01 10:49:56;;;;;;;1.98;0.62;;;;;;;20.53;45.81;100838.05;1935120;91;32861;-70
2022/09/01 10:53:02;;;;;;;1.98;0.88;;;;;;;20.56;45.94;100837.80;1935363;92;30492;-69
2022/09/01 10:56:44;;;;;;;3.05;0.80;;;;;;;20.55;45.97;100831.98;1935526;92;27742;-71
2022/09/01 10:59:46;;;;;;;2.20;0.90;;;;;;;20.53;45.17;100827.64;1935304;91;28768;-71
2022/09/01 11:03:17;;;;;;;0.82;0.62;;;;;;;20.44;45.05;100842.88;1935516;91;31051;-70
2022/09/01 11:07:03;;;;;;;1.67;0.72;;;;;;;20.37;44.85;100833.00;1935289;91;33006;-70
2022/09/01 11:10:32;;;;;;;1.95;0.65;;;;;;;20.29;44.20;100843.16;1935587;91;29505;-70
2022/09/01 11:13:51;;;;;;;0.45;0.45;;;;;;;20.18;42.98;100848.14;1937092;91;27751;-70
2022/09/01 11:17:13;;;;;;;4.37;0.80;;;;;;;20.04;43.48;100840.21;1936979;91;29590;-71
2022/09/01 11:20:30;;;;;;;0.98;0.60;;;;;;;20.09;44.25;100833.91;1936976;91;31070;-70
2022/09/01 11:23:33;;;;;;;0.72;0.70;;;;;;;20.21;44.59;100839.33;1936962;91;32988;-71
2022/09/01 11:26:47;;;;;;;1.45;0.60;;;;;;;20.30;43.58;100839.95;1937001;91;29349;-70
2022/09/01 11:30:03;;;;;;;0.90;0.60;;;;;;;20.29;42.27;100835.50;1937209;91;27576;-71
2022/09/01 11:33:36;;;;;;;1.22;0.50;;;;;;;20.17;44.17;100841.45;1936971;91;28743;-70
2022/09/01 11:36:46;;;;;;;3.25;0.85;;;;;;;20.22;44.50;100839.70;1936823;91;32293;-72
2022/09/01 11:39:51;;;;;;;7.22;1.15;;;;;;;20.23;43.07;100836.87;1936496;91;34067;-72
2022/09/01 11:42:54;;;;;;;0.62;0.53;;;;;;;20.23;43.75;100840.95;1919754;92;30322;-72
2022/09/01 11:46:16;;;;;;;5.37;0.50;;;;;;;20.28;43.29;100840.06;1934360;90;27762;-70
2022/09/01 11:49:33;;;;;;;0.45;0.40;;;;;;;20.29;42.45;100834.14;1954601;90;29586;-70
2022/09/01 11:52:37;;;;;;;1.42;0.80;;;;;;;20.32;42.95;100829.30;1958469;89;31049;-69
2022/09/01 11:55:49;;;;;;;1.02;0.60;;;;;;;20.33;42.92;100828.31;1958511;90;33027;-70
2022/09/01 11:58:52;;;;;;;1.10;0.60;;;;;;;20.39;43.62;100828.30;1958469;90;29325;-70
2022/09/01 12:01:58;;;;;;;0.68;0.60;;;;;;;20.52;42.81;100813.17;1958701;90;28253;-69
2022/09/01 12:05:02;;;;;;;1.75;1.25;;;;;;;20.62;43.33;100812.77;1958745;90;28666;-69
2022/09/01 12:08:13;;;;;;;2.10;0.90;;;;;;;20.73;43.41;100816.45;1958606;90;31703;-70
2022/09/01 12:11:32;;;;;;;3.05;0.72;;;;;;;20.87;43.19;100813.45;1992505;88;33780;-70
2022/09/01 12:14:33;;;;;;;5.87;1.30;;;;;;;21.02;42.33;100813.13;2005236;88;30136;-70
2022/09/01 12:17:35;;;;;;;1.20;0.60;;;;;;;21.17;42.92;100807.72;2005378;88;27742;-69
2022/09/01 12:20:37;;;;;;;1.10;0.70;;;;;;;21.16;41.61;100803.27;1997025;88;29869;-70
2022/09/01 12:23:42;;;;;;;1.52;1.10;;;;;;;21.04;42.29;100802.45;1997176;89;31214;-71
2022/09/01 12:26:47;;;;;;;5.72;1.17;;;;;;;20.90;42.40;100807.75;1990985;89;33812;-70
2022/09/01 12:29:49;;;;;;;1.67;0.80;;;;;;;20.76;42.08;100806.19;1983741;89;30163;-68
2022/09/01 12:32:52;;;;;;;1.35;0.70;;;;;;;20.69;43.35;100809.53;1964161;90;27713;-69
2022/09/01 12:36:16;;;;;;;3.08;0.70;;;;;;;20.63;43.40;100805.48;1964109;90;28683;-69
2022/09/01 12:39:23;;;;;;;1.65;1.00;;;;;;;20.60;43.74;100811.17;1964215;90;31843;-71
2022/09/01 12:42:33;;;;;;;1.35;0.90;;;;;;;20.59;44.43;100808.96;1964036;90;33757;-71
2022/09/01 12:45:45;;;;;;;1.57;0.80;;;;;;;20.58;44.49;100802.27;1964776;90;29715;-70
2022/09/01 12:48:46;;;;;;;0.88;0.57;;;;;;;20.54;44.39;100810.31;1967811;90;27827;-72
2022/09/01 12:51:48;;;;;;;0.47;0.47;;;;;;;20.48;43.09;100798.97;1968497;90;28763;-70
2022/09/01 12:55:06;;;;;;;0.75;0.57;;;;;;;20.53;43.45;100800.42;1968593;90;31039;-71
2022/09/01 12:58:09;;;;;;;2.40;0.72;;;;;;;20.56;42.16;100799.69;1968611;90;34146;-71
2022/09/01 13:01:16;;;;;;;1.35;0.80;;;;;;;20.60;42.68;100794.33;1996826;88;30539;-69
2022/09/01 13:04:29;;;;;;;0.75;0.72;;;;;;;20.74;42.89;100796.41;1993294;88;27675;-70
2022/09/01 13:07:31;;;;;;;1.70;0.70;;;;;;;20.91;42.86;100790.89;2001915;88;28712;-71
2022/09/01 13:10:40;;;;;;;3.72;0.72;;;;;;;21.08;43.21;100784.02;2001715;88;31050;-69
2022/09/01 13:13:42;;;;;;;1.72;0.68;;;;;;;21.23;42.24;100779.07;2001566;88;34223;-71
2022/09/01 13:16:44;;;;;;;0.75;0.75;;;;;;;21.30;41.94;100785.72;2001585;88;29797;-71
2022/09/01 13:19:45;;;;;;;0.72;0.50;;;;;;;21.29;42.00;100787.20;2001602;88;28265;-69
2022/09/01 13:22:47;;;;;;;1.57;0.72;;;;;;;21.13;40.78;100787.17;1989453;88;28679;-70
2022/09/01 13:25:49;;;;;;;1.40;0.57;;;;;;;20.96;40.91;100792.73;1968582;89;31133;-68
2022/09/01 13:28:50;;;;;;;2.15;0.75;;;;;;;20.80;40.49;100785.00;1968567;89;33378;-69
2022/09/01 13:31:51;;;;;;;0.98;0.60;;;;;;;20.77;41.41;100790.70;1968999;90;30040;-70
2022/09/01 13:34:53;;;;;;;0.60;0.50;;;;;;;20.75;40.98;100791.33;1968543;90;27781;-68
2022/09/01 13:37:55;;;;;;;0.93;0.68;;;;;;;20.74;40.04;100789.09;1968728;88;29680;-66
2022/09/01 13:40:59;;;;;;;3.35;0.45;;;;;;;20.75;41.13;100788.61;1968815;90;31425;-73
2022/09/01 13:44:01;;;;;;;1.95;0.50;;;;;;;20.83;42.21;100778.45;1968696;90;32972;-75
2022/09/01 13:47:02;;;;;;;2.40;1.15;;;;;;;20.98;42.32;100785.78;1963806;89;29326;-73
2022/09/01 13:50:05;;;;;;;4.78;1.22;;;;;;;21.13;42.10;100784.97;1960027;90;27701;-71
2022/09/01 13:53:07;;;;;;;1.67;0.72;;;;;;;21.20;41.78;100784.78;1964240;89;29900;-67
2022/09/01 13:56:09;;;;;;;0.40;0.40;;;;;;;21.22;39.35;100788.23;1981734;89;31876;-69
2022/09/01 13:59:10;;;;;;;1.32;0.70;;;;;;;21.18;39.50;100794.46;1981953;89;33752;-70
2022/09/01 14:02:11;;;;;;;0.78;0.50;;;;;;;21.11;39.04;100794.62;1982200;89;29404;-68
2022/09/01 14:05:12;;;;;;;2.50;0.70;;;;;;;20.95;39.16;100793.22;1981949;89;27618;-69
2022/09/01 14:08:18;;;;;;;4.35;0.60;;;;;;;20.77;39.43;100792.06;1981244;89;29453;-68
2022/09/01 14:11:19;;;;;;;0.65;0.40;;;;;;;20.61;40.04;100793.84;1981555;89;30921;-69
2022/09/01 14:14:21;;;;;;;1.45;0.50;;;;;;;20.48;39.54;100789.44;1981938;89;34187;-70
2022/09/01 14:17:22;;;;;;;2.27;0.50;;;;;;;20.38;39.87;100785.74;1982131;89;29345;-70
2022/09/01 14:20:30;;;;;;;3.30;0.80;;;;;;;20.34;40.37;100789.23;1982341;89;27737;-71
2022/09/01 14:23:32;;;;;;;2.17;1.15;;;;;;;20.33;41.30;100777.97;1963109;89;28854;-70
2022/09/01 14:26:33;;;;;;;2.27;0.70;;;;;;;20.33;41.89;100775.77;1949340;91;32341;-70
2022/09/01 14:29:35;;;;;;;0.57;0.47;;;;;;;20.34;42.39;100774.27;1949678;91;32749;-70
2022/09/01 14:32:37;;;;;;;1.30;1.00;;;;;;;20.34;42.38;100774.27;1949412;91;30393;-71